Latest Weather Observations for Deniliquin

IDN60801

Issued at 5:02 pm EDT Tuesday 9 February 2016 (issued every 30 minutes, with the page automatically refreshed every 10 minutes)

About weather observations | Map of weather stations | Latest weather observations for NSW | Other Formats
Station Details ID: 074258 Name: DENILIQUIN AIRPORT AWS Lat: -35.56 Lon: 144.95 Height: 94.0 m
Data from the previous 72 hours. | See also: Recent months at Deniliquin
Date/Time
EDT
Temp
°C
App
Temp
°C
Dew
Point
Rel
Hum
%
Delta-T
°C
Wind Press
QNH
hPa
Press
MSL
hPa
Rain
since 9 am
mm
Dir
 
Spd
km/h
Gust
km/h
Spd
kts
Gust
kts
09/05:00pm 35.2 29.5 -4.0 8 18.2 W 17 22 9 12 1014.0 1013.6 0.0
09/04:30pm 35.0 29.3 -4.1 8 18.1 W 17 24 9 13 1014.3 1013.9 0.0
09/04:00pm 34.6 29.0 -2.9 9 17.7 W 17 26 9 14 1014.8 1014.4 0.0
09/03:30pm 34.8 28.7 -4.3 8 18.0 WSW 19 30 10 16 1015.2 1014.8 0.0
09/03:00pm 33.4 28.6 0.1 12 16.3 W 15 22 8 12 1015.7 1015.2 0.0
09/02:30pm 33.4 27.9 -2.3 10 16.9 W 17 28 9 15 1016.1 1015.6 0.0
09/02:00pm 32.2 28.1 2.3 15 15.1 WNW 13 22 7 12 1016.5 1016.0 0.0
09/01:30pm 32.1 28.1 4.8 18 14.4 NW 15 19 8 10 1016.9 1016.4 0.0
09/01:00pm 30.8 27.8 6.0 21 13.2 NW 11 24 6 13 1017.3 1016.8 0.0
09/12:30pm 29.6 26.8 6.9 24 12.2 NW 11 19 6 10 1017.8 1017.3 0.0
09/12:00pm 28.5 26.6 9.2 30 10.7 NNW 9 15 5 8 1018.2 1017.7 0.0
09/11:30am 27.3 26.1 9.6 33 9.8 NW 6 9 3 5 1018.5 1018.1 0.0
09/11:00am 25.7 24.5 9.5 36 8.9 NE 6 11 3 6 1018.6 1018.2 0.0
09/10:30am 24.4 22.6 9.6 39 8.1 ENE 9 15 5 8 1018.5 1018.1 0.0
09/10:00am 23.0 21.6 9.4 42 7.4 SE 7 13 4 7 1018.7 1018.3 0.0
09/09:30am 21.7 19.9 9.6 46 6.5 SE 9 13 5 7 1018.8 1018.4 0.0
09/09:00am 20.0 17.5 9.6 51 5.6 SSE 13 17 7 9 1018.7 1018.3 0.0
09/08:30am 18.3 14.6 9.4 56 4.7 S 19 26 10 14 1018.7 1018.3 0.0
09/08:00am 16.9 14.9 10.1 64 3.6 S 11 19 6 10 1018.5 1018.1 0.0
09/07:30am 14.3 12.8 9.1 71 2.7 W 7 7 4 4 1018.5 1018.1 0.0
09/07:00am 13.3 11.9 9.0 75 2.2 SW 6 6 3 3 1018.3 1017.8 0.0
09/06:30am 12.9 10.8 8.2 73 2.3 SW 9 9 5 5 1017.9 1017.4 0.0
09/06:00am 14.2 12.2 8.8 70 2.7 SSW 9 11 5 6 1017.6 1017.1 0.0
09/05:30am 14.9 13.1 9.3 69 2.9 S 9 9 5 5 1017.5 1017.0 0.0
09/05:00am 15.5 13.3 9.4 67 3.2 S 11 13 6 7 1017.4 1016.9 0.0
09/04:30am 16.3 13.8 9.7 65 3.5 S 13 15 7 8 1017.3 1016.8 0.0
09/04:00am 16.8 14.3 9.7 63 3.7 S 13 19 7 10 1017.3 1016.8 0.0
09/03:30am 17.4 14.2 9.8 61 4.0 S 17 20 9 11 1017.2 1016.7 0.0
09/03:00am 18.0 14.8 9.9 59 4.3 S 17 22 9 12 1017.4 1016.9 0.0
09/02:30am 18.5 15.6 9.6 56 4.7 S 15 19 8 10 1017.5 1017.0 0.0
09/02:00am 18.9 16.1 8.6 51 5.4 SSW 13 17 7 9 1017.5 1017.0 0.0
09/01:30am 19.8 16.5 7.9 46 6.2 S 15 20 8 11 1017.6 1017.1 0.0
09/01:00am 21.1 16.8 8.0 43 6.8 S 20 26 11 14 1017.6 1017.1 0.0
09/12:30am 21.7 17.4 7.9 41 7.2 S 20 28 11 15 1017.6 1017.1 0.0
09/12:00am 22.5 18.0 8.6 41 7.4 S 22 30 12 16 1017.7 1017.2 0.0
 
Date/Time
EDT
Temp
°C
App
Temp
°C
Dew
Point
Rel
Hum
%
Delta-T
°C
Wind Press
QNH
hPa
Press
MSL
hPa
Rain
since 9 am
mm
Dir
 
Spd
km/h
Gust
km/h
Spd
kts
Gust
kts
08/11:30pm 23.4 18.8 8.3 38 8.0 S 22 30 12 16 1017.9 1017.4 0.0
08/11:00pm 24.4 19.6 8.8 37 8.4 S 24 30 13 16 1018.0 1017.5 0.0
08/10:30pm 25.6 20.6 8.1 33 9.4 S 24 33 13 18 1017.8 1017.3 0.0
08/10:00pm 26.8 21.2 8.7 32 9.9 S 28 35 15 19 1017.6 1017.1 0.0
08/09:30pm 28.0 22.8 10.2 33 10.0 S 28 37 15 20 1017.0 1016.5 0.0
08/09:00pm 29.5 23.6 10.6 31 10.8 SSE 32 39 17 21 1016.5 1016.0 0.0
08/08:30pm 31.0 26.4 9.8 27 12.0 SSE 24 33 13 18 1016.1 1015.6 0.0
08/08:00pm 32.6 27.6 9.4 24 13.2 S 26 33 14 18 1015.7 1015.2 0.0
08/07:30pm 33.8 30.0 9.1 22 14.1 SSE 19 32 10 17 1015.2 1014.8 0.0
08/07:00pm 34.7 30.9 7.7 19 15.1 S 17 24 9 13 1015.0 1014.6 0.0
08/06:30pm 35.1 31.2 7.2 18 15.5 S 17 28 9 15 1015.0 1014.6 0.0
08/06:00pm 35.8 30.7 7.8 18 15.8 SSW 24 35 13 19 1015.0 1014.6 0.0
08/05:30pm 35.1 31.0 8.0 19 15.3 SW 19 28 10 15 1015.2 1014.8 0.0
08/05:00pm 36.8 31.7 7.8 17 16.4 S 24 33 13 18 1015.6 1015.1 0.0
08/04:30pm 37.2 32.4 7.2 16 16.9 SW 22 33 12 18 1015.7 1015.2 0.0
08/04:00pm 36.4 31.6 5.6 15 16.8 SSW 20 33 11 18 1015.9 1015.4 0.0
08/03:30pm 36.7 31.2 5.9 15 16.9 WSW 24 37 13 20 1016.2 1015.7 0.0
08/03:00pm 37.1 32.8 7.1 16 16.8 SSW 19 32 10 17 1016.5 1016.0 0.0
08/02:30pm 35.9 31.6 7.9 18 15.8 SW 20 28 11 15 1017.0 1016.5 0.0
08/02:00pm 35.4 31.8 8.3 19 15.3 SSW 17 32 9 17 1017.3 1016.8 0.0
08/01:30pm 35.1 32.5 9.5 21 14.8 W 13 22 7 12 1017.6 1017.1 0.0
08/01:00pm 34.9 32.9 10.0 22 14.4 SW 11 20 6 11 1017.8 1017.3 0.0
08/12:30pm 32.7 31.2 10.7 26 12.8 SSW 9 15 5 8 1018.2 1017.7 0.0
08/12:00pm 32.1 31.4 11.3 28 12.1 E 6 9 3 5 1018.5 1018.1 0.0
08/11:30am 30.7 29.9 11.6 31 11.2 W 7 13 4 7 1018.7 1018.3 0.0
08/11:00am 30.1 28.9 11.6 32 10.8 E 9 15 5 8 1018.8 1018.4 0.0
08/10:30am 29.0 27.9 12.0 35 9.9 ESE 9 15 5 8 1018.9 1018.5 0.0
08/10:00am 27.4 25.9 11.8 38 9.0 SE 11 15 6 8 1018.9 1018.5 0.0
08/09:30am 26.3 24.6 12.4 42 8.1 SE 13 20 7 11 1018.8 1018.4 0.0
08/09:00am 24.9 23.2 12.5 46 7.1 SE 13 17 7 9 1018.7 1018.3 0.0
08/08:30am 23.3 21.1 12.0 49 6.4 SE 15 19 8 10 1018.6 1018.2 0.0
08/08:00am 21.8 20.4 12.1 54 5.5 SSE 11 17 6 9 1018.3 1017.8 0.0
08/07:30am 20.0 18.9 12.0 60 4.5 S 9 11 5 6 1018.1 1017.6 0.0
08/07:00am 18.7 17.5 11.5 63 4.0 S 9 11 5 6 1017.9 1017.4 0.0
08/06:30am 18.9 17.3 11.5 62 4.1 S 11 15 6 8 1017.5 1017.0 0.0
08/06:00am 19.3 18.0 11.3 60 4.4 S 9 11 5 6 1017.1 1016.6 0.0
08/05:30am 19.7 18.5 11.5 59 4.5 S 9 13 5 7 1016.9 1016.4 0.0
08/05:00am 20.4 18.8 11.6 57 4.9 SSE 11 15 6 8 1016.8 1016.3 0.0
08/04:30am 20.6 19.1 11.8 57 4.9 SSE 11 13 6 7 1016.7 1016.2 0.0
08/04:00am 20.9 19.0 11.8 56 5.1 SSE 13 17 7 9 1016.5 1016.0 0.0
08/03:30am 20.7 18.9 12.1 58 4.8 S 13 15 7 8 1016.5 1016.0 0.0
08/03:00am 20.8 19.2 11.7 56 5.1 S 11 13 6 7 1016.5 1016.0 0.0
08/02:30am 21.7 20.1 11.7 53 5.6 S 11 13 6 7 1016.5 1016.0 0.0
08/02:00am 21.9 19.8 11.0 50 6.0 SSE 13 15 7 8 1016.5 1016.0 0.0
08/01:30am 22.4 19.4 10.5 47 6.6 S 17 22 9 12 1016.5 1016.0 0.0
08/01:00am 21.7 21.8 10.2 48 6.3 CALM 0 0 0 0 1016.2 1015.7 0.0
08/12:30am 22.4 22.4 9.9 45 6.8 CALM 0 0 0 0 1016.2 1015.7 0.0
08/12:00am 23.3 23.5 10.4 44 7.1 CALM 0 0 0 0 1016.1 1015.6 0.0
 
Date/Time
EDT
Temp
°C
App
Temp
°C
Dew
Point
Rel
Hum
%
Delta-T
°C
Wind Press
QNH
hPa
Press
MSL
hPa
Rain
since 9 am
mm
Dir
 
Spd
km/h
Gust
km/h
Spd
kts
Gust
kts
07/11:30pm 24.0 23.8 9.2 39 8.0 CALM 0 0 0 0 1016.1 1015.6 0.0
07/11:00pm 24.7 24.5 9.0 37 8.5 CALM 0 0 0 0 1016.0 1015.5 0.0
07/10:30pm 25.2 24.2 8.7 35 8.9 ESE 4 6 2 3 1015.9 1015.4 0.0
07/10:00pm 26.1 24.5 8.1 32 9.7 ESE 6 7 3 4 1015.8 1015.3 0.0
07/09:30pm 28.0 26.4 8.8 30 10.6 ESE 7 9 4 5 1015.6 1015.1 0.0
07/09:00pm 29.1 27.4 8.2 27 11.5 SE 7 11 4 6 1015.3 1014.9 0.0
07/08:30pm 30.9 26.8 8.0 24 12.6 SSE 19 22 10 12 1015.1 1014.7 0.0
07/08:00pm 32.2 28.3 7.1 21 13.7 SSE 17 22 9 12 1014.7 1014.3 0.0
07/07:30pm 33.2 29.7 7.2 20 14.3 SSE 15 24 8 13 1014.2 1013.8 0.0
07/07:00pm 33.7 30.5 6.9 19 14.7 SSE 13 20 7 11 1014.0 1013.6 0.0
07/06:30pm 33.9 32.1 7.8 20 14.6 E 7 15 4 8 1013.8 1013.4 0.0
07/06:00pm 33.5 30.6 8.2 21 14.2 SSE 13 24 7 13 1013.7 1013.3 0.0
07/05:30pm 34.4 30.9 8.9 21 14.5 SE 17 24 9 13 1013.6 1013.2 0.0
07/05:00pm 34.0 30.1 7.1 19 14.9 SSE 17 32 9 17 1013.8 1013.4 0.0
07/04:30pm 34.2 31.1 8.8 21 14.4 NE 15 28 8 15 1014.0 1013.6 0.0
07/04:00pm 34.0 31.8 9.3 22 14.1 SE 11 19 6 10 1014.1 1013.7 0.0
07/03:30pm 33.3 31.3 10.0 24 13.4 SSE 11 17 6 9 1014.6 1014.2 0.0
07/03:00pm 33.3 31.6 10.0 24 13.4 ENE 9 20 5 11 1015.0 1014.6 0.0
07/02:30pm 33.1 31.9 10.4 25 13.1 SE 7 13 4 7 1015.4 1015.0 0.0
07/02:00pm 32.1 30.5 10.2 26 12.6 NE 9 19 5 10 1015.8 1015.3 0.0
07/01:30pm 31.2 28.5 11.6 30 11.5 SSW 17 22 9 12 1016.2 1015.7 0.0
07/01:00pm 31.3 29.2 11.1 29 11.7 SW 13 20 7 11 1016.4 1015.9 0.0
07/12:30pm 30.6 29.0 11.5 30 11.1 ESE 11 20 6 11 1016.6 1016.1 0.0
07/12:00pm 30.5 29.7 12.9 34 10.5 NW 9 17 5 9 1016.8 1016.3 0.0
07/11:30am 29.3 28.1 12.7 36 9.8 N 11 17 6 9 1016.9 1016.4 0.0
07/11:00am 28.5 27.8 13.2 39 9.1 NNE 9 17 5 9 1017.1 1016.6 0.0
07/10:30am 27.9 26.0 13.1 40 8.7 NNE 15 22 8 12 1017.1 1016.6 0.0
07/10:00am 27.0 24.7 14.1 45 7.7 NNE 19 24 10 13 1017.0 1016.5 0.0
07/09:30am 25.3 22.7 13.2 47 7.1 NNE 19 26 10 14 1017.0 1016.5 0.0
07/09:00am 24.1 21.5 13.3 51 6.3 NE 19 28 10 15 1016.9 1016.4 0.0
07/08:30am 22.7 20.6 13.5 56 5.3 NE 17 22 9 12 1016.7 1016.2 0.0
07/08:00am 21.6 20.1 13.0 58 4.9 ENE 13 19 7 10 1016.6 1016.1 0.0
07/07:30am 20.1 19.2 12.6 62 4.2 E 9 13 5 7 1016.4 1015.9 0.0
07/07:00am 18.0 16.4 11.6 66 3.5 ESE 11 13 6 7 1015.9 1015.4 0.0
07/06:30am 18.0 16.7 11.3 65 3.7 ESE 9 11 5 6 1015.3 1014.9 0.0
07/06:00am 18.5 17.5 11.1 62 4.0 ESE 7 11 4 6 1015.0 1014.6 0.0
07/05:30am 19.0 17.7 11.1 60 4.3 ENE 9 9 5 5 1014.8 1014.4 0.0
07/05:00am 19.3 18.0 10.0 55 5.0 E 7 7 4 4 1014.6 1014.2 0.0
07/04:30am 19.3 17.5 9.5 53 5.2 E 9 9 5 5 1014.5 1014.1 0.0
07/04:00am 19.5 18.3 9.4 52 5.4 SE 6 7 3 4 1014.5 1014.1 0.0
07/03:30am 19.7 18.2 9.0 50 5.6 E 7 9 4 5 1014.5 1014.1 0.0
07/03:00am 19.8 18.1 9.7 52 5.4 ENE 9 11 5 6 1014.4 1014.0 0.0
07/02:30am 18.8 17.4 10.9 60 4.3 E 9 11 5 6 1014.5 1014.1 0.0
07/02:00am 19.1 17.8 9.9 55 4.9 SE 7 9 4 5 1014.6 1014.2 0.0
07/01:30am 19.4 19.3 9.6 53 5.2 CALM 0 0 0 0 1014.6 1014.2 0.0
07/01:00am 19.8 18.8 8.8 49 5.8 E 4 6 2 3 1014.6 1014.2 0.0
07/12:30am 20.6 19.0 8.6 46 6.3 ESE 7 9 4 5 1014.7 1014.3 0.0
07/12:00am 21.8 20.4 8.7 43 7.0 E 6 6 3 3 1014.6 1014.2 0.0
 
Date/Time
EDT
Temp
°C
App
Temp
°C
Dew
Point
Rel
Hum
%
Delta-T
°C
Wind Press
QNH
hPa
Press
MSL
hPa
Rain
since 9 am
mm
Dir
 
Spd
km/h
Gust
km/h
Spd
kts
Gust
kts
06/11:30pm 22.2 20.4 8.0 40 7.5 ENE 7 9 4 5 1014.6 1014.2 0.0
06/11:00pm 22.2 20.1 8.3 41 7.3 ENE 9 11 5 6 1014.7 1014.3 0.0
06/10:30pm 23.4 21.3 8.3 38 8.0 NE 9 11 5 6 1014.7 1014.3 0.0
06/10:00pm 23.4 21.3 6.7 34 8.6 ESE 7 11 4 6 1014.5 1014.1 0.0
06/09:30pm 24.8 22.7 6.5 31 9.5 E 7 9 4 5 1014.2 1013.8 0.0
06/09:00pm 25.8 23.4 6.9 30 10.0 ENE 9 11 5 6 1013.9 1013.5 0.0
06/08:30pm 26.9 24.3 6.3 27 10.8 E 9 13 5 7 1013.7 1013.3 0.0
06/08:00pm 29.1 25.2 5.2 22 12.5 ENE 15 20 8 11 1013.4 1013.0 0.0
06/07:30pm 30.3 26.5 5.6 21 13.1 ENE 15 19 8 10 1013.0 1012.6 0.0
06/07:00pm 30.5 26.7 5.7 21 13.1 ENE 15 22 8 12 1012.8 1012.4 0.0
06/06:30pm 31.0 27.1 5.4 20 13.5 E 15 26 8 14 1012.8 1012.4 0.0
06/06:00pm 30.5 26.8 6.4 22 12.9 SE 15 24 8 13 1012.8 1012.4 0.0
06/05:30pm 31.5 28.2 6.5 21 13.5 ESE 13 30 7 16 1012.9 1012.5 0.0

Other Formats:

Comma delimited format used in spreadsheet applications
http://www.bom.gov.au/fwo/IDN60801/IDN60801.95869.axf

JavaScript Object Notation format (JSON) in row-major order
http://www.bom.gov.au/fwo/IDN60801/IDN60801.95869.json